Monument Lake Park, Colorado
Current Conditions -  °F | °C
As of 7:31 PM on Sunday 21 Dec 2014 (Local Time) from KVTP Reporting Station
Haze Haze  
Wind Chill: 15°   Ceiling: 500
Heat Index: 27°   Visibility: 5mi
Dew Point: 23°   Wind: 15mph
Humidity: 86%   Direction: 200°SSW
Pressure: 29.74"   Gusts: 32mph
Location:  37.1566°N, 104.956°W
Report Text: KVTP 220231Z AUTO 20013G28KT 180V260 5SM BR BKN005 BKN009 BKN015 M03/M05 A2974 RMK AO2
Loading
Personal Weather Stations






























Interactive Weather Map New forecast layout! Learn more

10-Day Weather Forecast

Advertisements
Track Severe Weather on mobile